createdAt,value
2022-07-25T00:01:54.475Z,23.91
2022-07-25T00:04:21.398Z,23.95
2022-07-25T00:06:48.962Z,23.99
2022-07-25T00:09:16.706Z,24.06
2022-07-25T00:11:46.261Z,24.12
2022-07-25T00:14:12.913Z,24.15
2022-07-25T00:16:40.088Z,24.12
2022-07-25T00:19:06.757Z,24.13
2022-07-25T00:21:33.345Z,24.12
2022-07-25T00:23:59.954Z,24.13
2022-07-25T00:26:26.528Z,24.17
2022-07-25T00:28:53.071Z,24.18
2022-07-25T00:31:19.731Z,24.19
2022-07-25T00:33:46.333Z,24.18
2022-07-25T00:36:14.789Z,24.22
2022-07-25T00:38:41.426Z,24.19
2022-07-25T00:41:08.610Z,24.16
2022-07-25T00:43:35.175Z,24.13
2022-07-25T00:46:02.046Z,24.10
2022-07-25T00:48:30.107Z,24.07
2022-07-25T00:50:57.021Z,23.99
2022-07-25T00:53:24.620Z,23.94
2022-07-25T00:55:51.956Z,23.90
2022-07-25T00:58:18.900Z,23.80
2022-07-25T01:00:54.601Z,23.75
2022-07-25T01:03:21.162Z,23.69
2022-07-25T01:05:53.093Z,23.63
2022-07-25T01:08:24.092Z,23.58
2022-07-25T01:10:50.674Z,23.55
2022-07-25T01:13:19.855Z,23.51
2022-07-25T01:15:47.707Z,23.42
2022-07-25T01:18:14.376Z,23.35
2022-07-25T01:20:43.825Z,23.32
2022-07-25T01:23:10.426Z,23.23
2022-07-25T01:25:37.110Z,23.15
2022-07-25T01:28:03.912Z,23.02
2022-07-25T01:30:40.106Z,22.91
2022-07-25T01:33:07.316Z,22.96
2022-07-25T01:35:41.529Z,22.99
2022-07-25T01:38:13.450Z,23.08
2022-07-25T01:40:40.691Z,23.18
2022-07-25T01:43:08.097Z,23.22
2022-07-25T01:45:34.680Z,23.26
2022-07-25T01:48:01.237Z,23.33
2022-07-25T01:50:30.632Z,23.39
2022-07-25T01:52:58.525Z,23.42
2022-07-25T01:55:25.176Z,23.42
2022-07-25T01:57:53.060Z,23.39
2022-07-25T02:00:19.895Z,23.33
2022-07-25T02:03:09.755Z,23.21
2022-07-25T02:05:36.416Z,23.14
2022-07-25T02:08:03.369Z,22.99
2022-07-25T02:10:29.914Z,22.84
2022-07-25T02:12:56.394Z,22.88
2022-07-25T02:15:23.152Z,22.89
2022-07-25T02:17:49.710Z,22.86
2022-07-25T02:20:16.255Z,22.83
2022-07-25T02:22:42.783Z,22.69
2022-07-25T02:25:12.336Z,22.65
2022-07-25T02:27:38.866Z,22.56
2022-07-25T02:30:06.175Z,22.45
2022-07-25T02:32:32.694Z,22.34
2022-07-25T02:34:59.267Z,22.29
2022-07-25T02:37:25.820Z,22.23
2022-07-25T02:39:52.418Z,22.18
2022-07-25T02:42:18.911Z,22.13
2022-07-25T02:44:45.513Z,22.15
2022-07-25T02:47:12.100Z,22.16
2022-07-25T02:49:38.629Z,22.09
2022-07-25T02:52:05.523Z,22.03
2022-07-25T02:54:32.438Z,22.05
2022-07-25T02:56:59.018Z,22.06
2022-07-25T02:59:25.531Z,22.03
2022-07-25T03:01:58.896Z,21.96
2022-07-25T03:04:25.553Z,21.96
2022-07-25T03:06:52.286Z,22.01
2022-07-25T03:09:19.288Z,22.03
2022-07-25T03:11:45.858Z,22.00
2022-07-25T03:14:12.385Z,21.98
2022-07-25T03:16:39.277Z,22.00
2022-07-25T03:19:10.230Z,22.03
2022-07-25T03:21:39.735Z,22.03
2022-07-25T03:24:06.997Z,22.11
2022-07-25T03:26:33.850Z,22.21
2022-07-25T03:29:00.374Z,22.29
2022-07-25T03:31:26.942Z,22.47
2022-07-25T03:33:53.517Z,22.70
2022-07-25T03:36:20.044Z,22.77
2022-07-25T03:38:46.656Z,22.84
2022-07-25T03:41:13.618Z,22.89
2022-07-25T03:43:40.409Z,22.92
2022-07-25T03:46:07.030Z,22.93
2022-07-25T03:48:33.862Z,23.00
2022-07-25T03:51:06.400Z,22.98
2022-07-25T03:53:33.135Z,22.97
2022-07-25T03:55:59.679Z,23.01
2022-07-25T03:58:26.289Z,22.99
2022-07-25T04:00:52.877Z,23.00
2022-07-25T04:03:19.707Z,23.00
2022-07-25T04:05:47.698Z,22.93
2022-07-25T04:08:14.730Z,22.91
2022-07-25T04:10:41.253Z,22.84
2022-07-25T04:13:09.772Z,22.86
2022-07-25T04:15:36.422Z,22.86
2022-07-25T04:18:02.965Z,22.87
2022-07-25T04:20:29.550Z,23.02
2022-07-25T04:22:56.131Z,23.01
2022-07-25T04:25:22.753Z,23.06
2022-07-25T04:27:49.285Z,23.08
2022-07-25T04:30:23.966Z,23.02
2022-07-25T04:32:51.636Z,22.96
2022-07-25T04:35:18.227Z,22.83
2022-07-25T04:37:44.765Z,22.75
2022-07-25T04:40:11.857Z,22.70
2022-07-25T04:42:38.441Z,22.65
2022-07-25T04:45:05.344Z,22.59
2022-07-25T04:47:31.955Z,22.56
2022-07-25T04:49:58.559Z,22.60
2022-07-25T04:52:25.136Z,22.60
2022-07-25T04:54:51.667Z,22.59
2022-07-25T04:57:18.663Z,22.64
2022-07-25T04:59:45.233Z,22.71
2022-07-25T05:02:11.854Z,22.73
2022-07-25T05:04:45.159Z,22.76
2022-07-25T05:07:12.154Z,22.84
2022-07-25T05:09:38.961Z,23.00
2022-07-25T05:12:05.709Z,23.21
2022-07-25T05:14:32.268Z,23.31
2022-07-25T05:16:58.872Z,23.43
2022-07-25T05:19:26.047Z,23.56
2022-07-25T05:21:53.301Z,23.69
2022-07-25T05:24:19.895Z,23.80
2022-07-25T05:26:46.925Z,23.83
2022-07-25T05:29:13.476Z,23.88
2022-07-25T05:31:40.283Z,24.00
2022-07-25T05:34:07.397Z,24.07
2022-07-25T05:36:34.429Z,24.14
2022-07-25T05:39:01.343Z,24.19
2022-07-25T05:41:28.036Z,24.17
2022-07-25T05:43:54.738Z,24.28
2022-07-25T05:46:21.316Z,24.39
2022-07-25T05:48:47.930Z,24.52
2022-07-25T05:51:14.506Z,24.61
2022-07-25T05:53:41.065Z,24.67
2022-07-25T05:56:08.845Z,24.99
2022-07-25T05:58:37.205Z,25.13
2022-07-25T06:01:03.810Z,25.31
2022-07-25T06:03:30.453Z,25.37
2022-07-25T06:05:57.029Z,25.46
2022-07-25T06:08:23.984Z,25.58
2022-07-25T06:10:51.579Z,25.74
2022-07-25T06:13:18.134Z,25.86
2022-07-25T06:15:47.386Z,25.86
2022-07-25T06:18:13.880Z,25.95
2022-07-25T06:20:40.470Z,26.07
2022-07-25T06:23:07.010Z,26.08
2022-07-25T06:25:33.635Z,26.20
2022-07-25T06:28:01.041Z,26.17
2022-07-25T06:30:28.286Z,26.17
2022-07-25T06:32:54.866Z,26.22
2022-07-25T06:35:23.010Z,26.32
2022-07-25T06:37:50.091Z,26.31
2022-07-25T06:40:16.909Z,26.34
2022-07-25T06:42:45.290Z,26.37
2022-07-25T06:45:13.203Z,26.41
2022-07-25T06:47:41.485Z,26.49
2022-07-25T06:50:11.317Z,26.49
2022-07-25T06:52:38.891Z,26.58
2022-07-25T06:55:09.070Z,26.68
2022-07-25T06:57:36.027Z,26.80
2022-07-25T07:00:06.959Z,26.92
2022-07-25T07:02:33.731Z,27.13
2022-07-25T07:05:00.273Z,27.14
2022-07-25T07:07:27.158Z,27.09
2022-07-25T07:09:53.695Z,27.12
2022-07-25T07:12:20.253Z,27.19
2022-07-25T07:14:47.893Z,27.26
2022-07-25T07:17:14.471Z,27.35
2022-07-25T07:19:44.423Z,27.31
2022-07-25T07:22:11.261Z,27.44
2022-07-25T07:24:44.392Z,27.49
2022-07-25T07:27:14.865Z,27.52
2022-07-25T07:29:42.015Z,27.51
2022-07-25T07:32:08.785Z,27.64
2022-07-25T07:34:35.512Z,27.63
2022-07-25T07:37:02.565Z,27.63
2022-07-25T07:39:29.154Z,27.75
2022-07-25T07:41:55.713Z,27.78
2022-07-25T07:44:22.262Z,27.89
2022-07-25T07:46:48.997Z,28.01
2022-07-25T07:49:15.709Z,28.06
2022-07-25T07:51:44.174Z,28.24
2022-07-25T07:54:28.976Z,28.37
2022-07-25T07:56:55.499Z,28.49
2022-07-25T07:59:22.095Z,28.62
2022-07-25T08:01:48.729Z,28.83
2022-07-25T08:04:15.690Z,29.05
2022-07-25T08:06:43.168Z,29.28
2022-07-25T08:09:10.418Z,29.41
2022-07-25T08:11:40.033Z,29.50
2022-07-25T08:14:07.475Z,29.65
2022-07-25T08:16:34.365Z,29.93
2022-07-25T08:19:00.907Z,30.13
2022-07-25T08:21:27.552Z,30.19
2022-07-25T08:23:54.499Z,30.46
2022-07-25T08:26:21.120Z,30.57
2022-07-25T08:28:52.512Z,30.73
2022-07-25T08:31:27.237Z,30.94
2022-07-25T08:33:54.017Z,31.06
